createdAt,value
2023-06-28T00:01:38.510Z,49.71
2023-06-28T00:04:06.776Z,49.91
2023-06-28T00:06:34.322Z,49.73
2023-06-28T00:09:01.859Z,49.67
2023-06-28T00:11:29.705Z,50.03
2023-06-28T00:13:57.227Z,50.18
2023-06-28T00:16:24.662Z,49.94
2023-06-28T00:18:52.359Z,49.88
2023-06-28T00:21:20.335Z,49.98
2023-06-28T00:23:47.826Z,50.23
2023-06-28T00:26:15.537Z,49.59
2023-06-28T00:28:43.083Z,49.69
2023-06-28T00:31:10.584Z,50.06
2023-06-28T00:33:39.049Z,50.08
2023-06-28T00:36:06.521Z,50.44
2023-06-28T00:38:35.845Z,50.93
2023-06-28T00:41:04.725Z,50.50
2023-06-28T00:43:33.847Z,50.10
2023-06-28T00:46:01.313Z,50.07
2023-06-28T00:48:29.160Z,50.23
2023-06-28T00:50:56.713Z,51.04
2023-06-28T00:53:24.203Z,51.42
2023-06-28T00:55:51.973Z,51.17
2023-06-28T00:58:19.750Z,51.29
2023-06-28T01:00:47.825Z,51.43
2023-06-28T01:03:19.637Z,51.89
2023-06-28T01:05:49.961Z,51.83
2023-06-28T01:08:18.211Z,52.18
2023-06-28T01:10:46.132Z,52.28
2023-06-28T01:13:13.600Z,52.30
2023-06-28T01:15:41.384Z,52.26
2023-06-28T01:18:12.531Z,53.31
2023-06-28T01:20:40.498Z,52.77
2023-06-28T01:23:08.395Z,52.80
2023-06-28T01:25:37.466Z,53.68
2023-06-28T01:28:05.139Z,53.30
2023-06-28T01:30:37.319Z,53.10
2023-06-28T01:33:05.666Z,52.67
2023-06-28T01:35:33.545Z,53.40
2023-06-28T01:38:01.524Z,52.89
2023-06-28T01:40:29.073Z,51.90
2023-06-28T01:42:56.775Z,52.04
2023-06-28T01:45:24.241Z,50.55
2023-06-28T01:47:51.819Z,51.80
2023-06-28T01:50:20.209Z,52.48
2023-06-28T01:52:47.699Z,51.90
2023-06-28T01:55:15.259Z,51.89
2023-06-28T01:57:43.147Z,51.58
2023-06-28T02:00:11.953Z,51.27
2023-06-28T02:02:44.489Z,52.25
2023-06-28T02:05:12.295Z,51.72
2023-06-28T02:07:41.622Z,51.49
2023-06-28T02:10:11.126Z,51.59
2023-06-28T02:12:39.034Z,52.34
2023-06-28T02:15:07.304Z,51.88
2023-06-28T02:17:38.122Z,51.82
2023-06-28T02:20:08.301Z,52.41
2023-06-28T02:22:36.017Z,51.62
2023-06-28T02:25:03.878Z,52.65
2023-06-28T02:27:32.005Z,52.18
2023-06-28T02:29:59.872Z,52.11
2023-06-28T02:32:31.691Z,51.82
2023-06-28T02:34:59.350Z,52.35
2023-06-28T02:37:27.084Z,52.37
2023-06-28T02:39:54.519Z,52.08
2023-06-28T02:42:22.128Z,51.71
2023-06-28T02:44:50.462Z,51.77
2023-06-28T02:47:18.106Z,51.36
2023-06-28T02:49:45.547Z,51.08
2023-06-28T02:52:13.263Z,51.07
2023-06-28T02:54:40.827Z,51.21
2023-06-28T02:57:10.423Z,50.91
2023-06-28T02:59:39.024Z,50.89
2023-06-28T03:02:06.913Z,50.33
2023-06-28T03:04:40.702Z,51.22
2023-06-28T03:07:16.138Z,50.31
2023-06-28T03:09:43.742Z,50.50
2023-06-28T03:12:12.097Z,50.51
2023-06-28T03:14:39.548Z,50.56
2023-06-28T03:17:07.185Z,50.48
2023-06-28T03:19:35.763Z,51.22
2023-06-28T03:22:04.403Z,51.94
2023-06-28T03:24:31.944Z,52.63
2023-06-28T03:27:00.037Z,51.99
2023-06-28T03:29:27.833Z,52.18
2023-06-28T03:31:56.427Z,51.65
2023-06-28T03:34:24.437Z,51.26
2023-06-28T03:37:02.622Z,51.05
2023-06-28T03:39:32.621Z,51.26
2023-06-28T03:42:00.095Z,51.90
2023-06-28T03:44:27.529Z,50.17
2023-06-28T03:46:55.232Z,50.51
2023-06-28T03:49:22.728Z,50.19
2023-06-28T03:51:50.420Z,50.72
2023-06-28T03:54:21.081Z,50.17
2023-06-28T03:56:50.290Z,50.33
2023-06-28T03:59:18.288Z,51.05
2023-06-28T04:01:48.118Z,50.66
2023-06-28T04:04:17.536Z,50.39
2023-06-28T04:06:46.361Z,50.81
2023-06-28T04:09:14.079Z,50.86
2023-06-28T04:11:41.746Z,51.03
2023-06-28T04:14:09.168Z,50.63
2023-06-28T04:16:37.332Z,51.22
2023-06-28T04:19:06.195Z,51.75
2023-06-28T04:21:34.307Z,51.03
2023-06-28T04:24:02.052Z,51.65
2023-06-28T04:26:29.719Z,53.37
2023-06-28T04:28:57.119Z,53.08
2023-06-28T04:31:25.320Z,53.45
2023-06-28T04:33:56.776Z,54.26
2023-06-28T04:36:26.596Z,54.16
2023-06-28T04:38:56.062Z,53.89
2023-06-28T04:41:29.576Z,53.88
2023-06-28T04:43:59.191Z,54.45
2023-06-28T04:46:29.767Z,54.01
2023-06-28T04:49:00.911Z,54.64
2023-06-28T04:51:29.342Z,55.16
2023-06-28T04:53:57.072Z,54.81
2023-06-28T04:56:25.674Z,54.67
2023-06-28T04:58:53.061Z,54.95
2023-06-28T05:01:21.097Z,55.23
2023-06-28T05:03:48.756Z,54.79
2023-06-28T05:06:17.442Z,54.77
2023-06-28T05:08:45.142Z,54.29
2023-06-28T05:11:12.573Z,54.13
2023-06-28T05:13:40.550Z,55.32
2023-06-28T05:16:08.272Z,54.95
2023-06-28T05:18:35.668Z,53.93
2023-06-28T05:21:03.331Z,56.43
2023-06-28T05:23:31.242Z,55.27
2023-06-28T05:25:58.627Z,56.36
2023-06-28T05:28:27.221Z,55.37
2023-06-28T05:30:55.128Z,56.32
2023-06-28T05:33:22.602Z,56.73
2023-06-28T05:35:50.557Z,56.14
2023-06-28T05:38:18.317Z,56.13
2023-06-28T05:40:45.737Z,55.36
2023-06-28T05:43:13.156Z,55.32
2023-06-28T05:45:40.846Z,56.57
2023-06-28T05:48:08.567Z,56.29
2023-06-28T05:50:38.727Z,56.66
2023-06-28T05:53:08.074Z,54.86
2023-06-28T05:55:35.525Z,54.86
2023-06-28T05:58:03.052Z,54.82
2023-06-28T06:00:30.793Z,53.95
2023-06-28T06:02:58.663Z,53.91
2023-06-28T06:05:26.266Z,54.09
2023-06-28T06:07:53.705Z,54.03
2023-06-28T06:10:21.401Z,54.92
2023-06-28T06:12:48.859Z,53.76
2023-06-28T06:15:16.556Z,53.62
2023-06-28T06:17:44.386Z,54.09
2023-06-28T06:20:12.156Z,52.60
2023-06-28T06:22:39.639Z,53.24
2023-06-28T06:25:07.643Z,53.06
2023-06-28T06:27:35.233Z,54.17
2023-06-28T06:30:03.098Z,51.92
2023-06-28T06:32:31.323Z,53.36
2023-06-28T06:34:59.135Z,51.21
2023-06-28T06:37:26.574Z,53.58
2023-06-28T06:39:57.104Z,51.87
2023-06-28T06:42:24.538Z,52.62
2023-06-28T06:44:52.102Z,53.37
2023-06-28T06:47:19.815Z,53.29
2023-06-28T06:49:47.188Z,52.72
2023-06-28T06:52:14.579Z,54.36
2023-06-28T06:54:42.252Z,52.60
2023-06-28T06:57:09.664Z,53.01
2023-06-28T06:59:37.508Z,54.00
2023-06-28T07:02:05.980Z,52.94
2023-06-28T07:04:33.675Z,50.18
2023-06-28T07:07:01.163Z,52.65
2023-06-28T07:09:29.846Z,52.33
2023-06-28T07:11:57.301Z,52.48
2023-06-28T07:14:24.719Z,52.12
2023-06-28T07:16:52.478Z,51.33
2023-06-28T07:19:19.913Z,52.11
2023-06-28T07:21:47.267Z,52.76
2023-06-28T07:24:14.958Z,51.34
2023-06-28T07:26:42.366Z,50.96
2023-06-28T07:29:09.835Z,51.68
2023-06-28T07:31:37.621Z,50.18
2023-06-28T07:34:07.316Z,49.44
2023-06-28T07:36:34.752Z,49.25
2023-06-28T07:39:02.519Z,49.61
2023-06-28T07:41:29.971Z,51.57
2023-06-28T07:43:57.401Z,51.07
2023-06-28T07:46:25.253Z,51.14
2023-06-28T07:48:52.919Z,52.47
2023-06-28T07:51:20.367Z,51.51
2023-06-28T07:53:48.161Z,51.01
2023-06-28T07:56:15.762Z,50.11
2023-06-28T07:58:43.186Z,51.82
2023-06-28T08:01:10.935Z,50.69
2023-06-28T08:03:38.861Z,51.27
2023-06-28T08:06:06.307Z,51.90
2023-06-28T08:08:33.949Z,50.23
2023-06-28T08:11:01.692Z,50.74
2023-06-28T08:13:29.168Z,49.56
2023-06-28T08:15:56.538Z,50.81
2023-06-28T08:18:24.371Z,49.33
2023-06-28T08:20:51.789Z,50.46
2023-06-28T08:23:19.879Z,50.15
2023-06-28T08:25:47.557Z,50.77
2023-06-28T08:28:14.975Z,49.40
2023-06-28T08:30:42.463Z,49.01
2023-06-28T08:33:10.272Z,49.22
2023-06-28T08:35:37.740Z,51.49
2023-06-28T08:38:05.171Z,50.27
2023-06-28T08:40:33.438Z,49.36
2023-06-28T08:43:02.829Z,50.03
2023-06-28T08:45:33.197Z,49.64
2023-06-28T08:48:05.030Z,48.85
2023-06-28T08:50:39.964Z,47.93
2023-06-28T08:53:11.097Z,49.52
2023-06-28T08:55:39.056Z,49.92
2023-06-28T08:58:06.960Z,48.77
2023-06-28T09:00:34.628Z,49.46
2023-06-28T09:03:04.946Z,49.73
2023-06-28T09:05:34.282Z,48.87
2023-06-28T09:08:04.505Z,51.16
2023-06-28T09:10:32.259Z,51.08
2023-06-28T09:12:59.808Z,51.11
2023-06-28T09:15:27.481Z,51.04
2023-06-28T09:17:54.938Z,52.58
2023-06-28T09:20:22.704Z,48.93
2023-06-28T09:22:57.731Z,49.63
2023-06-28T09:25:30.614Z,50.08
2023-06-28T09:27:59.193Z,48.28
2023-06-28T09:30:41.473Z,50.88
2023-06-28T09:33:09.349Z,50.76
2023-06-28T09:35:40.341Z,51.52
2023-06-28T09:38:08.890Z,50.25
2023-06-28T09:40:36.948Z,49.53
2023-06-28T09:43:04.626Z,49.63
2023-06-28T09:45:34.450Z,47.21
2023-06-28T09:48:03.297Z,47.06
2023-06-28T09:50:41.179Z,47.88
2023-06-28T09:53:10.640Z,46.65
2023-06-28T09:55:41.292Z,46.80
2023-06-28T09:58:11.962Z,46.58
2023-06-28T10:00:40.586Z,46.22
2023-06-28T10:03:13.771Z,47.00
2023-06-28T10:05:43.810Z,46.91
2023-06-28T10:08:16.620Z,47.11
2023-06-28T10:10:45.561Z,46.96
2023-06-28T10:13:15.527Z,45.74
2023-06-28T10:15:54.956Z,48.45
2023-06-28T10:18:23.401Z,46.50
2023-06-28T10:20:53.320Z,46.41
2023-06-28T10:23:20.855Z,46.36
2023-06-28T10:25:48.520Z,44.13
2023-06-28T10:28:16.122Z,44.01
2023-06-28T10:30:43.981Z,42.80
2023-06-28T10:33:12.295Z,44.10
2023-06-28T10:35:40.466Z,43.66
2023-06-28T10:38:14.032Z,39.91
2023-06-28T10:40:46.928Z,41.07
2023-06-28T10:43:24.594Z,41.07
2023-06-28T10:45:56.067Z,40.43
2023-06-28T10:48:25.216Z,38.53
2023-06-28T10:50:53.338Z,40.16
2023-06-28T10:53:26.276Z,39.75
2023-06-28T10:56:14.593Z,40.74
2023-06-28T10:58:43.827Z,39.34
2023-06-28T11:01:15.236Z,38.86
2023-06-28T11:03:46.387Z,38.46
2023-06-28T11:06:14.960Z,39.85
2023-06-28T11:08:44.175Z,39.09
2023-06-28T11:11:31.781Z,38.87
2023-06-28T11:14:17.772Z,37.84
2023-06-28T11:16:48.626Z,38.40
2023-06-28T11:19:17.548Z,37.75
2023-06-28T11:21:50.299Z,38.88
2023-06-28T11:24:43.063Z,36.89
2023-06-28T11:27:14.912Z,38.17
2023-06-28T11:29:59.587Z,34.92
2023-06-28T11:32:29.116Z,37.60
2023-06-28T11:34:58.570Z,37.36
2023-06-28T11:37:27.928Z,39.01
2023-06-28T11:39:55.491Z,37.53
2023-06-28T11:42:23.176Z,36.51
2023-06-28T11:44:52.234Z,36.01
2023-06-28T11:47:27.085Z,35.89
2023-06-28T11:49:56.723Z,34.87
2023-06-28T11:52:25.160Z,36.22
2023-06-28T11:54:53.250Z,36.31
2023-06-28T11:57:20.925Z,36.06
2023-06-28T11:59:52.101Z,37.62
2023-06-28T12:02:19.528Z,34.61
2023-06-28T12:05:01.652Z,33.41
2023-06-28T12:07:29.698Z,33.87
2023-06-28T12:09:58.601Z,34.69
2023-06-28T12:12:36.159Z,33.89
2023-06-28T12:15:04.857Z,35.02
2023-06-28T12:17:43.651Z,34.78
2023-06-28T12:20:15.240Z,35.18
2023-06-28T12:22:44.545Z,34.18
2023-06-28T12:25:12.355Z,35.27
2023-06-28T12:27:39.989Z,35.11
2023-06-28T12:30:12.238Z,34.91
2023-06-28T12:32:45.159Z,34.79
2023-06-28T12:35:26.024Z,35.43
2023-06-28T12:37:58.402Z,35.70
2023-06-28T12:40:35.017Z,34.90
2023-06-28T12:43:13.792Z,35.10
2023-06-28T12:45:52.178Z,35.68
2023-06-28T12:48:21.441Z,34.52
2023-06-28T12:50:53.010Z,35.04
2023-06-28T12:53:22.432Z,33.43
2023-06-28T12:55:50.209Z,34.74
2023-06-28T12:58:17.580Z,33.50
2023-06-28T13:00:46.546Z,34.17
2023-06-28T13:03:15.204Z,34.90
2023-06-28T13:05:43.122Z,33.41
2023-06-28T13:08:12.002Z,34.22
2023-06-28T13:10:39.462Z,34.85
2023-06-28T13:13:07.024Z,36.56
2023-06-28T13:15:34.798Z,36.92
2023-06-28T13:18:02.256Z,36.44
2023-06-28T13:20:29.649Z,37.05
2023-06-28T13:22:57.356Z,36.22
2023-06-28T13:25:27.299Z,35.68
2023-06-28T13:27:54.782Z,37.06
2023-06-28T13:30:22.844Z,36.56
2023-06-28T13:32:51.270Z,36.12
2023-06-28T13:35:18.898Z,35.57
2023-06-28T13:37:49.727Z,35.63
2023-06-28T13:40:19.140Z,35.73
2023-06-28T13:42:47.729Z,35.28
2023-06-28T13:45:17.885Z,36.68
2023-06-28T13:47:45.403Z,35.42
2023-06-28T13:50:14.206Z,36.08
2023-06-28T13:52:41.618Z,38.01
2023-06-28T13:55:09.494Z,39.83
2023-06-28T13:57:37.163Z,38.25
2023-06-28T14:00:05.687Z,38.94
2023-06-28T14:02:33.195Z,36.93
2023-06-28T14:05:00.948Z,38.31
2023-06-28T14:07:28.386Z,37.12
2023-06-28T14:09:55.905Z,38.26
2023-06-28T14:12:23.672Z,38.77
2023-06-28T14:14:51.146Z,39.33
2023-06-28T14:17:18.886Z,39.40
2023-06-28T14:19:46.723Z,39.34
2023-06-28T14:22:14.184Z,38.93
2023-06-28T14:24:41.666Z,38.88
2023-06-28T14:27:09.356Z,39.60
2023-06-28T14:29:37.568Z,39.55
2023-06-28T14:32:06.135Z,39.51
2023-06-28T14:34:33.917Z,38.90
2023-06-28T14:37:01.342Z,39.03
2023-06-28T14:39:28.789Z,38.84
2023-06-28T14:41:56.831Z,39.25
2023-06-28T14:44:24.262Z,40.89
2023-06-28T14:46:51.664Z,40.58
2023-06-28T14:49:20.166Z,40.22
2023-06-28T14:51:48.179Z,40.18
2023-06-28T14:54:15.656Z,39.48
2023-06-28T14:56:43.353Z,39.69
2023-06-28T14:59:10.769Z,39.72
2023-06-28T15:01:38.566Z,41.12
2023-06-28T15:04:06.304Z,41.35
2023-06-28T15:06:33.717Z,41.04
2023-06-28T15:09:01.118Z,40.42
2023-06-28T15:11:28.876Z,39.93
2023-06-28T15:13:56.255Z,41.05
2023-06-28T15:16:23.732Z,41.66
2023-06-28T15:18:51.405Z,40.71
2023-06-28T15:21:18.805Z,41.48
2023-06-28T15:23:46.273Z,40.65
2023-06-28T15:26:14.013Z,41.78
2023-06-28T15:28:41.439Z,40.97
2023-06-28T15:31:09.137Z,41.89
2023-06-28T15:33:36.821Z,41.84
2023-06-28T15:36:04.407Z,41.95
2023-06-28T15:38:31.839Z,43.06
2023-06-28T15:40:59.494Z,40.74
2023-06-28T15:43:26.989Z,40.47
2023-06-28T15:45:54.447Z,42.07
2023-06-28T15:48:22.139Z,41.78
2023-06-28T15:50:49.574Z,42.23
2023-06-28T15:53:17.315Z,40.81
2023-06-28T15:55:45.087Z,40.58
2023-06-28T15:58:12.490Z,40.08
2023-06-28T16:00:40.061Z,40.33
2023-06-28T16:03:09.068Z,40.69
2023-06-28T16:05:36.495Z,39.88
2023-06-28T16:08:04.104Z,41.62
2023-06-28T16:10:32.725Z,40.83
2023-06-28T16:13:01.179Z,41.95
2023-06-28T16:15:28.614Z,42.66
2023-06-28T16:17:56.388Z,41.75
2023-06-28T16:20:23.945Z,41.39
2023-06-28T16:22:53.517Z,41.61
2023-06-28T16:25:21.217Z,42.66
2023-06-28T16:27:50.796Z,42.29
2023-06-28T16:30:18.828Z,41.72
2023-06-28T16:32:46.552Z,42.26
2023-06-28T16:35:14.260Z,42.52
2023-06-28T16:37:41.638Z,42.25
2023-06-28T16:40:09.713Z,42.42
2023-06-28T16:42:37.126Z,42.95
2023-06-28T16:45:05.001Z,43.43
2023-06-28T16:47:32.814Z,42.32
2023-06-28T16:50:00.413Z,43.28
2023-06-28T16:52:27.902Z,42.90
2023-06-28T16:54:56.249Z,43.37
2023-06-28T16:57:24.139Z,44.77
2023-06-28T16:59:51.602Z,44.72
2023-06-28T17:02:19.563Z,44.68
2023-06-28T17:04:47.114Z,43.55
2023-06-28T17:07:14.991Z,44.87
2023-06-28T17:09:42.751Z,44.18
2023-06-28T17:12:10.253Z,43.20
2023-06-28T17:14:37.678Z,42.49
2023-06-28T17:17:05.435Z,44.01
2023-06-28T17:19:32.914Z,41.77
2023-06-28T17:22:00.680Z,42.61
2023-06-28T17:24:29.436Z,42.84
2023-06-28T17:26:58.114Z,42.94
2023-06-28T17:29:26.500Z,43.96
2023-06-28T17:31:55.455Z,44.76
2023-06-28T17:34:23.894Z,43.25
2023-06-28T17:36:52.852Z,43.68
2023-06-28T17:39:21.252Z,42.33
2023-06-28T17:41:49.039Z,43.46
2023-06-28T17:44:17.231Z,43.16
2023-06-28T17:46:45.924Z,43.87
2023-06-28T17:49:13.410Z,44.23
2023-06-28T17:51:41.878Z,44.26
2023-06-28T17:54:10.381Z,44.49
2023-06-28T17:56:39.019Z,44.65
2023-06-28T17:59:06.939Z,44.85
2023-06-28T18:01:35.971Z,44.76
2023-06-28T18:04:04.606Z,44.79
2023-06-28T18:06:32.625Z,44.79
2023-06-28T18:09:00.268Z,44.78
2023-06-28T18:11:28.237Z,44.89
2023-06-28T18:13:56.683Z,45.60
2023-06-28T18:16:24.133Z,46.20
2023-06-28T18:18:52.840Z,46.46
2023-06-28T18:21:21.485Z,46.18
2023-06-28T18:23:50.025Z,46.18
2023-06-28T18:26:18.200Z,46.29
2023-06-28T18:28:46.360Z,46.59
2023-06-28T18:31:14.602Z,46.64
2023-06-28T18:33:43.489Z,46.49
2023-06-28T18:36:11.925Z,47.35
2023-06-28T18:38:40.469Z,47.17
2023-06-28T18:41:09.030Z,47.08
2023-06-28T18:43:36.686Z,47.29
2023-06-28T18:46:06.695Z,47.65
2023-06-28T18:48:35.458Z,47.30
2023-06-28T18:51:03.340Z,47.58
2023-06-28T18:53:31.990Z,48.28
2023-06-28T18:56:01.484Z,48.35
2023-06-28T18:58:31.170Z,48.53
2023-06-28T19:00:59.851Z,48.87
2023-06-28T19:03:29.040Z,48.78
2023-06-28T19:05:58.008Z,48.76
2023-06-28T19:08:26.581Z,48.76
2023-06-28T19:10:55.758Z,48.36
2023-06-28T19:13:25.639Z,49.37
2023-06-28T19:15:53.697Z,49.20
2023-06-28T19:18:23.622Z,49.97
2023-06-28T19:20:52.115Z,50.02
2023-06-28T19:23:20.469Z,50.09
2023-06-28T19:25:51.906Z,50.56
2023-06-28T19:28:22.465Z,50.65
2023-06-28T19:30:50.145Z,50.70
2023-06-28T19:33:17.920Z,50.99
2023-06-28T19:35:45.525Z,51.07
2023-06-28T19:38:12.971Z,51.00
2023-06-28T19:40:40.946Z,51.30
2023-06-28T19:43:08.687Z,52.01
2023-06-28T19:45:36.172Z,51.60
2023-06-28T19:48:04.296Z,51.82
2023-06-28T19:50:31.952Z,51.77
2023-06-28T19:52:59.637Z,51.95
2023-06-28T19:55:27.501Z,51.79
2023-06-28T19:57:55.177Z,52.53
2023-06-28T20:00:22.984Z,52.25
2023-06-28T20:02:50.821Z,52.23
2023-06-28T20:05:21.045Z,52.41
2023-06-28T20:07:50.113Z,52.80
2023-06-28T20:10:17.988Z,53.20
2023-06-28T20:12:46.838Z,53.26
2023-06-28T20:15:14.304Z,53.72
2023-06-28T20:17:42.084Z,54.01
2023-06-28T20:20:10.006Z,53.47
2023-06-28T20:22:37.473Z,53.41
2023-06-28T20:25:07.255Z,53.52
2023-06-28T20:27:35.550Z,53.36
2023-06-28T20:30:04.476Z,53.57
2023-06-28T20:32:33.856Z,53.62
2023-06-28T20:35:01.452Z,53.75
2023-06-28T20:37:29.036Z,53.76
2023-06-28T20:39:56.807Z,53.29
2023-06-28T20:42:26.189Z,53.99
2023-06-28T20:44:56.238Z,53.93
2023-06-28T20:47:24.764Z,53.48
2023-06-28T20:49:52.547Z,53.51
2023-06-28T20:52:20.932Z,53.38
2023-06-28T20:54:48.665Z,53.57
2023-06-28T20:57:16.126Z,53.53
2023-06-28T20:59:43.548Z,54.15
2023-06-28T21:02:11.265Z,53.96
2023-06-28T21:04:38.836Z,53.44
2023-06-28T21:07:06.705Z,53.92
2023-06-28T21:09:34.428Z,53.77
2023-06-28T21:12:01.879Z,53.99
2023-06-28T21:14:29.374Z,54.25
2023-06-28T21:16:57.016Z,54.04
2023-06-28T21:19:24.464Z,54.46
2023-06-28T21:21:51.867Z,54.00
2023-06-28T21:24:19.632Z,53.90
2023-06-28T21:26:47.148Z,53.78
2023-06-28T21:29:14.631Z,53.73
2023-06-28T21:31:42.390Z,53.99
2023-06-28T21:34:09.817Z,53.89
2023-06-28T21:36:37.583Z,54.06
2023-06-28T21:39:05.371Z,53.71
2023-06-28T21:41:32.918Z,53.50
2023-06-28T21:44:00.345Z,53.43
2023-06-28T21:46:28.092Z,53.96
2023-06-28T21:48:55.514Z,54.81
2023-06-28T21:51:25.113Z,53.64
2023-06-28T21:53:53.451Z,54.56
2023-06-28T21:56:21.721Z,54.27
2023-06-28T21:58:49.398Z,54.02
2023-06-28T22:01:17.046Z,53.68
2023-06-28T22:03:44.752Z,53.67
2023-06-28T22:06:12.165Z,53.59
2023-06-28T22:08:39.573Z,53.51
2023-06-28T22:11:09.483Z,53.96
2023-06-28T22:13:42.185Z,53.91
2023-06-28T22:16:14.806Z,54.17
2023-06-28T22:18:45.204Z,54.01
2023-06-28T22:21:12.932Z,54.23
2023-06-28T22:23:40.392Z,54.50
2023-06-28T22:26:07.907Z,54.36
2023-06-28T22:28:35.906Z,54.14
2023-06-28T22:31:03.528Z,54.62
2023-06-28T22:33:31.079Z,54.26
2023-06-28T22:35:58.779Z,54.88
2023-06-28T22:38:27.329Z,55.12
2023-06-28T22:40:56.086Z,55.83
2023-06-28T22:43:23.823Z,55.68
2023-06-28T22:45:51.254Z,55.69
2023-06-28T22:48:20.241Z,55.73
2023-06-28T22:50:48.905Z,55.46
2023-06-28T22:53:16.408Z,56.04
2023-06-28T22:55:46.573Z,55.93
2023-06-28T22:58:14.283Z,55.63
2023-06-28T23:00:41.690Z,55.72
2023-06-28T23:03:09.732Z,55.66
2023-06-28T23:05:39.597Z,55.76
2023-06-28T23:08:08.443Z,55.77
2023-06-28T23:10:35.903Z,55.95
2023-06-28T23:13:03.611Z,56.20
2023-06-28T23:15:31.882Z,55.95
2023-06-28T23:18:00.630Z,56.23
2023-06-28T23:20:28.447Z,56.30
2023-06-28T23:22:55.997Z,56.20
2023-06-28T23:25:23.409Z,56.02
2023-06-28T23:27:51.776Z,55.67
2023-06-28T23:30:20.174Z,55.58
2023-06-28T23:32:50.519Z,55.56
2023-06-28T23:35:20.781Z,55.41
2023-06-28T23:37:49.472Z,55.50
2023-06-28T23:40:16.958Z,55.74
2023-06-28T23:42:44.887Z,55.56
2023-06-28T23:45:12.281Z,55.19
2023-06-28T23:47:40.400Z,55.54
2023-06-28T23:50:09.858Z,55.47
2023-06-28T23:52:37.581Z,55.79
2023-06-28T23:55:05.342Z,56.13
2023-06-28T23:57:34.836Z,56.30
